| time (UTC) | temp C | wind direction | speed KPH | gust KPH | rain 1hr cm | rain 24hr cm | rain mn cm | humidity % | barometer mb |
| 20260906195253 | 37 | 34 | 3.2 | 9.7 | 0.00 | 0.00 | 0.00 | 40 | 1013.8 |
| 20260906194752 | 36 | 216 | 6.4 | 16.1 | 0.00 | 0.00 | 0.00 | 40 | 1013.7 |
| 20260906194225 | 36 | 243 | 6.4 | 16.1 | 0.00 | 0.00 | 0.00 | 40 | 1013.7 |
| 20260906193928 | 36 | 270 | 3.2 | 12.9 | 0.00 | 0.00 | 0.00 | 41 | 1013.8 |
| 20260906193155 | 36 | 201 | 3.2 | 9.7 | 0.00 | 0.00 | 0.00 | 43 | 1014.0 |
| 20260906192654 | 36 | 355 | 4.8 | 8.0 | 0.00 | 0.00 | 0.00 | 40 | 1014.0 |
| 20260906192125 | 36 | 240 | 3.2 | 11.3 | 0.00 | 0.00 | 0.00 | 40 | 1014.1 |
| 20260906191624 | 36 | 209 | 1.6 | 9.7 | 0.00 | 0.00 | 0.00 | 40 | 1014.2 |
| 20260906191055 | 36 | 266 | 3.2 | 11.3 | 0.00 | 0.00 | 0.00 | 41 | 1014.2 |
| 20260906191039 | 36 | 236 | 8.0 | 19.3 | 0.00 | 0.00 | 0.00 | 42 | 1014.4 |
| 20260906190050 | 36 | 273 | 6.4 | 19.3 | 0.00 | 0.00 | 0.00 | 42 | 1014.4 |
| 20260906185547 | 36 | 263 | 1.6 | 6.4 | 0.00 | 0.00 | 0.00 | 42 | 1014.5 |
| 20260906185045 | 36 | 47 | 1.6 | 14.5 | 0.00 | 0.00 | 0.00 | 42 | 1014.5 |
| 20260906184542 | 35 | 36 | 6.4 | 14.5 | 0.00 | 0.00 | 0.00 | 42 | 1014.6 |
| 20260906184038 | 35 | 262 | 8.0 | 17.7 | 0.00 | 0.00 | 0.00 | 42 | 1014.6 |
| 20260906183533 | 35 | 144 | 8.0 | 17.7 | 0.00 | 0.00 | 0.00 | 42 | 1014.7 |
| 20260906183004 | 35 | 134 | 6.4 | 14.5 | 0.00 | 0.00 | 0.00 | 43 | 1014.7 |
| 20260906182504 | 35 | 119 | 3.2 | 14.5 | 0.00 | 0.00 | 0.00 | 43 | 1014.9 |
| 20260906181947 | 35 | 111 | 3.2 | 14.5 | 0.00 | 0.00 | 0.00 | 45 | 1015.1 |
| 20260906181445 | 35 | 331 | 4.8 | 14.5 | 0.00 | 0.00 | 0.00 | 44 | 1015.3 |
| 20260906181210 | 35 | 31 | 6.4 | 12.9 | 0.00 | 0.00 | 0.00 | 43 | 1015.5 |
| 20260906180419 | 35 | 5 | 8.0 | 12.9 | 0.00 | 0.00 | 0.00 | 44 | 1015.6 |
| 20260906175918 | 35 | 240 | 8.0 | 16.1 | 0.00 | 0.00 | 0.00 | 44 | 1015.7 |
| 20260906175349 | 35 | 269 | 6.4 | 14.5 | 0.00 | 0.00 | 0.00 | 45 | 1015.8 |
| 20260906174848 | 35 | 287 | 4.8 | 14.5 | 0.00 | 0.00 | 0.00 | 45 | 1016.0 |
| 20260906174319 | 35 | 267 | 3.2 | 8.0 | 0.00 | 0.00 | 0.00 | 46 | 1016.0 |
| 20260906173817 | 35 | 128 | 1.6 | 8.0 | 0.00 | 0.00 | 0.00 | 44 | 1016.1 |
| 20260906173251 | 35 | 319 | 1.6 | 4.8 | 0.00 | 0.00 | 0.00 | 46 | 1016.3 |
| 20260906172747 | 35 | 57 | 1.6 | 4.8 | 0.00 | 0.00 | 0.00 | 45 | 1016.5 |
| 20260906172246 | 35 | 5 | 1.6 | 4.8 | 0.00 | 0.00 | 0.00 | 45 | 1016.5 |
| 20260906171942 | 35 | 158 | 3.2 | 11.3 | 0.00 | 0.00 | 0.00 | 45 | 1016.5 |
| 20260906171214 | 35 | 163 | 4.8 | 11.3 | 0.00 | 0.00 | 0.00 | 47 | 1016.5 |
| 20260906170651 | 35 | 126 | 3.2 | 11.3 | 0.00 | 0.00 | 0.00 | 46 | 1016.7 |
| 20260906170129 | 35 | 153 | 1.6 | 4.8 | 0.00 | 0.00 | 0.00 | 45 | 1016.7 |
| 20260906165628 | 34 | 92 | 1.6 | 6.4 | 0.00 | 0.00 | 0.00 | 46 | 1016.8 |
| 20260906165326 | 34 | 313 | 4.8 | 9.7 | 0.00 | 0.00 | 0.00 | 46 | 1016.8 |
| 20260906165031 | 34 | 279 | 4.8 | 11.3 | 0.00 | 0.00 | 0.00 | 46 | 1016.8 |
| 20260906164033 | 34 | 244 | 3.2 | 11.3 | 0.00 | 0.00 | 0.00 | 46 | 1016.9 |
| 20260906163508 | 34 | 258 | 4.8 | 12.9 | 0.00 | 0.00 | 0.00 | 48 | 1016.9 |
| 20260906162945 | 34 | 233 | 4.8 | 12.9 | 0.00 | 0.00 | 0.00 | 47 | 1016.9 |
| 20260906162420 | 34 | 265 | 4.8 | 12.9 | 0.00 | 0.00 | 0.00 | 48 | 1016.8 |
| 20260906161919 | 34 | 273 | 4.8 | 12.9 | 0.00 | 0.00 | 0.00 | 48 | 1016.8 |
| 20260906161417 | 34 | 314 | 4.8 | 11.3 | 0.00 | 0.00 | 0.00 | 47 | 1016.8 |
| 20260906160859 | 34 | 263 | 4.8 | 16.1 | 0.00 | 0.00 | 0.00 | 49 | 1016.8 |
| 20260906160359 | 33 | 286 | 3.2 | 11.3 | 0.00 | 0.00 | 0.00 | 51 | 1016.8 |
| 20260906160054 | 33 | 301 | 4.8 | 14.5 | 0.00 | 0.00 | 0.00 | 52 | 1016.9 |
| 20260906155337 | 33 | 292 | 4.8 | 14.5 | 0.00 | 0.00 | 0.00 | 50 | 1016.9 |
| 20260906155245 | 33 | 294 | 3.2 | 8.0 | 0.00 | 0.00 | 0.00 | 51 | 1016.9 |
| 20260906154305 | 33 | 307 | 4.8 | 11.3 | 0.00 | 0.00 | 0.00 | 52 | 1016.8 |
| 20260906153804 | 33 | 242 | 3.2 | 11.3 | 0.00 | 0.00 | 0.00 | 52 | 1016.8 |
| 20260906153303 | 33 | 279 | 1.6 | 8.0 | 0.00 | 0.00 | 0.00 | 51 | 1016.7 |
| 20260906152803 | 32 | 175 | 3.2 | 8.0 | 0.00 | 0.00 | 0.00 | 52 | 1016.7 |
| 20260906152458 | 32 | 234 | 3.2 | 8.0 | 0.00 | 0.00 | 0.00 | 53 | 1016.8 |
| 20260906151722 | 32 | 242 | 3.2 | 11.3 | 0.00 | 0.00 | 0.00 | 53 | 1016.7 |
| 20260906151157 | 33 | 273 | 1.6 | 11.3 | 0.00 | 0.00 | 0.00 | 51 | 1016.7 |
| 20260906150657 | 32 | 90 | 0.0 | 1.6 | 0.00 | 0.00 | 0.00 | 55 | 1016.7 |
| 20260906150141 | 32 | 73 | 1.6 | 3.2 | 0.00 | 0.00 | 0.00 | 57 | 1016.6 |
| 20260906145618 | 31 | 71 | 1.6 | 4.8 | 0.00 | 0.00 | 0.00 | 56 | 1016.5 |
| 20260906145055 | 31 | 128 | 1.6 | 4.8 | 0.00 | 0.00 | 0.00 | 56 | 1016.6 |
| 20260906144554 | 31 | 111 | 1.6 | 3.2 | 0.00 | 0.00 | 0.00 | 60 | 1016.5 |
| 20260906144035 | 30 | 137 | 3.2 | 4.8 | 0.00 | 0.00 | 0.00 | 59 | 1016.5 |
| 20260906143534 | 30 | 137 | 3.2 | 4.8 | 0.00 | 0.00 | 0.00 | 60 | 1016.5 |
| 20260906143239 | 30 | 156 | 3.2 | 6.4 | 0.00 | 0.00 | 0.00 | 60 | 1016.5 |
| 20260906142440 | 30 | 134 | 4.8 | 6.4 | 0.00 | 0.00 | 0.00 | 62 | 1016.5 |
| 20260906141927 | 29 | 132 | 3.2 | 6.4 | 0.00 | 0.00 | 0.00 | 62 | 1016.6 |
| 20260906141425 | 29 | 161 | 3.2 | 6.4 | 0.00 | 0.00 | 0.00 | 61 | 1016.6 |
| 20260906141142 | 28 | 161 | 3.2 | 6.4 | 0.00 | 0.00 | 0.00 | 63 | 1016.7 |
| 20260906140359 | 28 | 161 | 1.6 | 4.8 | 0.00 | 0.00 | 0.00 | 64 | 1016.5 |
| 20260906135833 | 28 | 119 | 1.6 | 3.2 | 0.00 | 0.00 | 0.00 | 65 | 1016.6 |
| 20260906135307 | 28 | 130 | 1.6 | 3.2 | 0.00 | 0.00 | 0.00 | 66 | 1016.5 |
| 20260906134738 | 27 | 132 | 1.6 | 3.2 | 0.00 | 0.00 | 0.00 | 67 | 1016.5 |
| 20260906134456 | 27 | 118 | 1.6 | 6.4 | 0.00 | 0.00 | 0.00 | 67 | 1016.5 |
| 20260906133712 | 27 | 129 | 1.6 | 6.4 | 0.00 | 0.00 | 0.00 | 67 | 1016.5 |
| 20260906133215 | 26 | 127 | 1.6 | 3.2 | 0.00 | 0.00 | 0.00 | 70 | 1016.4 |
| 20260906132923 | 26 | 113 | 1.6 | 1.6 | 0.00 | 0.00 | 0.00 | 72 | 1016.4 |
| 20260906132200 | 26 | 122 | 1.6 | 1.6 | 0.00 | 0.00 | 0.00 | 73 | 1016.4 |
| 20260906131633 | 25 | 101 | 1.6 | 1.6 | 0.00 | 0.00 | 0.00 | 74 | 1016.2 |
| 20260906131323 | 25 | 104 | 1.6 | 1.6 | 0.00 | 0.00 | 0.00 | 74 | 1016.1 |
| 20260906130538 | 25 | 88 | 1.6 | 1.6 | 0.00 | 0.00 | 0.00 | 75 | 1016.1 |
| 20260906130037 | 24 | 106 | 1.6 | 1.6 | 0.00 | 0.00 | 0.00 | 75 | 1016.1 |
| 20260906125510 | 24 | 98 | 1.6 | 3.2 | 0.00 | 0.00 | 0.00 | 76 | 1016.1 |
| 20260906125207 | 24 | 88 | 1.6 | 1.6 | 0.00 | 0.00 | 0.00 | 76 | 1015.9 |
| 20260906124416 | 23 | 86 | 0.0 | 1.6 | 0.00 | 0.00 | 0.00 | 76 | 1015.8 |
| 20260906124135 | 23 | 98 | 0.0 | 0.0 | 0.00 | 0.00 | 0.00 | 76 | 1015.8 |
| 20260906123413 | 23 | 74 | 0.0 | 0.0 | 0.00 | 0.00 | 0.00 | 76 | 1015.7 |
| 20260906122847 | 23 | 74 | 0.0 | 1.6 | 0.00 | 0.00 | 0.00 | 77 | 1015.6 |
| 20260906122320 | 23 | 76 | 0.0 | 1.6 | 0.00 | 0.00 | 0.00 | 77 | 1015.5 |
| 20260906121752 | 23 | 83 | 1.6 | 1.6 | 0.00 | 0.00 | 0.00 | 78 | 1015.5 |
| 20260906121248 | 23 | 88 | 0.0 | 1.6 | 0.00 | 0.00 | 0.00 | 78 | 1015.4 |
| 20260906120748 | 23 | 85 | 1.6 | 1.6 | 0.00 | 0.00 | 0.00 | 77 | 1015.4 |
| 20260906120220 | 23 | 84 | 1.6 | 3.2 | 0.00 | 0.00 | 0.00 | 77 | 1015.3 |
| 20260906115718 | 23 | 86 | 1.6 | 3.2 | 0.00 | 0.00 | 0.00 | 78 | 1015.1 |
| 20260906115150 | 23 | 93 | 1.6 | 1.6 | 0.00 | 0.00 | 0.00 | 77 | 1014.9 |
| 20260906114648 | 23 | 89 | 1.6 | 1.6 | 0.00 | 0.00 | 0.00 | 77 | 1014.9 |
| 20260906114349 | 23 | 88 | 1.6 | 1.6 | 0.00 | 0.00 | 0.00 | 77 | 1014.7 |
| 20260906113845 | 23 | 86 | 1.6 | 1.6 | 0.00 | 0.00 | 0.00 | 77 | 1014.7 |
| 20260906113050 | 23 | 74 | 1.6 | 1.6 | 0.00 | 0.00 | 0.00 | 77 | 1014.6 |
| 20260906112549 | 23 | 74 | 1.6 | 1.6 | 0.00 | 0.00 | 0.00 | 77 | 1014.6 |
| 20260906112020 | 23 | 84 | 1.6 | 3.2 | 0.00 | 0.00 | 0.00 | 77 | 1014.5 |
| 20260906111518 | 23 | 86 | 1.6 | 3.2 | 0.00 | 0.00 | 0.00 | 76 | 1014.6 |
| 20260906110950 | 23 | 82 | 1.6 | 3.2 | 0.00 | 0.00 | 0.00 | 76 | 1014.6 |
| 20260906110449 | 24 | 82 | 1.6 | 3.2 | 0.00 | 0.00 | 0.00 | 75 | 1014.7 |
| 20260906105941 | 24 | 81 | 1.6 | 3.2 | 0.00 | 0.00 | 0.00 | 75 | 1014.7 |
| 20260906105441 | 24 | 81 | 1.6 | 3.2 | 0.00 | 0.00 | 0.00 | 74 | 1014.6 |
| 20260906105138 | 24 | 76 | 1.6 | 4.8 | 0.00 | 0.00 | 0.00 | 75 | 1014.8 |
| 20260906104631 | 24 | 78 | 1.6 | 4.8 | 0.00 | 0.00 | 0.00 | 74 | 1014.7 |
| 20260906103847 | 24 | 82 | 1.6 | 1.6 | 0.00 | 0.00 | 0.00 | 74 | 1014.7 |
| 20260906103335 | 24 | 84 | 1.6 | 1.6 | 0.00 | 0.00 | 0.00 | 73 | 1014.7 |
| 20260906103058 | 25 | 87 | 1.6 | 3.2 | 0.00 | 0.00 | 0.00 | 72 | 1014.7 |
| 20260906102306 | 24 | 74 | 0.0 | 3.2 | 0.00 | 0.00 | 0.00 | 72 | 1014.7 |
| 20260906101804 | 24 | 74 | 0.0 | 1.6 | 0.00 | 0.00 | 0.00 | 72 | 1014.8 |
| 20260906101236 | 24 | 76 | 1.6 | 3.2 | 0.00 | 0.00 | 0.00 | 72 | 1014.7 |
| 20260906101221 | 24 | 74 | 0.0 | 3.2 | 0.00 | 0.00 | 0.00 | 72 | 1014.7 |
| 20260906100720 | 25 | 92 | 0.0 | 1.6 | 0.00 | 0.00 | 0.00 | 72 | 1014.7 |
| 20260906095729 | 25 | 92 | 0.0 | 1.6 | 0.00 | 0.00 | 0.00 | 72 | 1014.7 |
| 20260906095222 | 25 | 92 | 0.0 | 3.2 | 0.00 | 0.00 | 0.00 | 72 | 1014.6 |
| 20260906094721 | 25 | 92 | 0.0 | 1.6 | 0.00 | 0.00 | 0.00 | 74 | 1014.6 |
| 20260906094152 | 25 | 92 | 0.0 | 1.6 | 0.00 | 0.00 | 0.00 | 72 | 1014.6 |
| 20260906093651 | 25 | 92 | 0.0 | 1.6 | 0.00 | 0.00 | 0.00 | 71 | 1014.5 |
| 20260906093122 | 25 | 92 | 0.0 | 3.2 | 0.00 | 0.00 | 0.00 | 71 | 1014.6 |
| 20260906092621 | 25 | 89 | 1.6 | 3.2 | 0.00 | 0.00 | 0.00 | 71 | 1014.5 |
| 20260906092055 | 25 | 104 | 1.6 | 1.6 | 0.00 | 0.00 | 0.00 | 71 | 1014.5 |
| 20260906091749 | 25 | 94 | 1.6 | 1.6 | 0.00 | 0.00 | 0.00 | 71 | 1014.5 |
| 20260906091024 | 25 | 90 | 0.0 | 1.6 | 0.00 | 0.00 | 0.00 | 71 | 1014.4 |
| 20260906090457 | 25 | 88 | 0.0 | 3.2 | 0.00 | 0.00 | 0.00 | 71 | 1014.5 |
| 20260906085955 | 25 | 90 | 1.6 | 3.2 | 0.00 | 0.00 | 0.00 | 71 | 1014.5 |
| 20260906085453 | 25 | 88 | 1.6 | 1.6 | 0.00 | 0.00 | 0.00 | 70 | 1014.5 |
| 20260906084927 | 25 | 84 | 1.6 | 1.6 | 0.00 | 0.00 | 0.00 | 70 | 1014.6 |
| 20260906084626 | 25 | 88 | 1.6 | 1.6 | 0.00 | 0.00 | 0.00 | 70 | 1014.5 |
| 20260906084104 | 25 | 82 | 1.6 | 1.6 | 0.00 | 0.00 | 0.00 | 69 | 1014.4 |
| 20260906083335 | 25 | 94 | 1.6 | 1.6 | 0.00 | 0.00 | 0.00 | 69 | 1014.5 |
| 20260906082821 | 25 | 87 | 1.6 | 3.2 | 0.00 | 0.00 | 0.00 | 70 | 1014.5 |
| 20260906082321 | 25 | 81 | 0.0 | 3.2 | 0.00 | 0.00 | 0.00 | 70 | 1014.5 |
| 20260906081824 | 25 | 86 | 0.0 | 3.2 | 0.00 | 0.00 | 0.00 | 70 | 1014.4 |
| 20260906081300 | 25 | 88 | 0.0 | 1.6 | 0.00 | 0.00 | 0.00 | 70 | 1014.3 |
| 20260906080800 | 25 | 88 | 1.6 | 3.2 | 0.00 | 0.00 | 0.00 | 71 | 1014.4 |
| 20260906080238 | 25 | 89 | 0.0 | 1.6 | 0.00 | 0.00 | 0.00 | 70 | 1014.4 |
| 20260906075720 | 26 | 89 | 0.0 | 1.6 | 0.00 | 0.00 | 0.00 | 69 | 1014.4 |
| 20260906075221 | 26 | 80 | 0.0 | 3.2 | 0.00 | 0.00 | 0.00 | 69 | 1014.3 |
| 20260906074649 | 26 | 80 | 0.0 | 3.2 | 0.00 | 0.00 | 0.00 | 68 | 1014.2 |
| 20260906074148 | 26 | 78 | 0.0 | 3.2 | 0.00 | 0.00 | 0.00 | 67 | 1014.2 |
| 20260906073651 | 26 | 77 | 1.6 | 3.2 | 0.00 | 0.00 | 0.00 | 67 | 1014.3 |
| 20260906073128 | 26 | 101 | 1.6 | 3.2 | 0.00 | 0.00 | 0.00 | 66 | 1014.1 |
| 20260906072630 | 26 | 101 | 1.6 | 3.2 | 0.00 | 0.00 | 0.00 | 66 | 1014.1 |
| 20260906072333 | 26 | 101 | 0.0 | 1.6 | 0.00 | 0.00 | 0.00 | 67 | 1014.1 |
| 20260906071619 | 26 | 105 | 0.0 | 3.2 | 0.00 | 0.00 | 0.00 | 66 | 1014.2 |
| 20260906071054 | 26 | 103 | 0.0 | 3.2 | 0.00 | 0.00 | 0.00 | 65 | 1014.2 |
| 20260906070537 | 26 | 118 | 0.0 | 0.0 | 0.00 | 0.00 | 0.00 | 65 | 1014.2 |
| 20260906070038 | 27 | 118 | 0.0 | 0.0 | 0.00 | 0.00 | 0.00 | 64 | 1014.3 |
| 20260906065538 | 27 | 118 | 0.0 | 0.0 | 0.00 | 0.00 | 0.00 | 64 | 1014.2 |
| 20260906065039 | 27 | 118 | 0.0 | 0.0 | 0.00 | 0.00 | 0.00 | 63 | 1014.2 |
| 20260906064511 | 27 | 118 | 0.0 | 1.6 | 0.00 | 0.00 | 0.00 | 63 | 1014.1 |
| 20260906064004 | 27 | 118 | 1.6 | 3.2 | 0.00 | 0.00 | 0.00 | 62 | 1014.1 |
| 20260906063441 | 27 | 118 | 1.6 | 3.2 | 0.00 | 0.00 | 0.00 | 62 | 1014.1 |
| 20260906062914 | 27 | 111 | 1.6 | 3.2 | 0.00 | 0.00 | 0.00 | 62 | 1014.1 |
| 20260906062405 | 27 | 114 | 1.6 | 1.6 | 0.00 | 0.00 | 0.00 | 62 | 1014.2 |
| 20260906062344 | 27 | 111 | 1.6 | 3.2 | 0.00 | 0.00 | 0.00 | 62 | 1014.2 |
| 20260906061405 | 27 | 129 | 1.6 | 3.2 | 0.00 | 0.00 | 0.00 | 63 | 1014.3 |
| 20260906060906 | 27 | 112 | 1.6 | 3.2 | 0.00 | 0.00 | 0.00 | 63 | 1014.4 |
| 20260906060403 | 27 | 92 | 1.6 | 3.2 | 0.00 | 0.00 | 0.00 | 63 | 1014.4 |
| 20260906060128 | 27 | 90 | 1.6 | 3.2 | 0.00 | 0.00 | 0.00 | 62 | 1014.4 |
| 20260906055338 | 28 | 103 | 1.6 | 3.2 | 0.00 | 0.00 | 0.00 | 61 | 1014.5 |
| 20260906054811 | 28 | 113 | 1.6 | 3.2 | 0.00 | 0.00 | 0.00 | 60 | 1014.6 |
| 20260906054246 | 28 | 113 | 1.6 | 3.2 | 0.00 | 0.00 | 0.00 | 60 | 1014.6 |
| 20260906053729 | 28 | 98 | 1.6 | 3.2 | 0.00 | 0.00 | 0.00 | 60 | 1014.4 |
| 20260906053229 | 28 | 124 | 1.6 | 3.2 | 0.00 | 0.00 | 0.00 | 60 | 1014.4 |
| 20260906052733 | 28 | 115 | 1.6 | 1.6 | 0.00 | 0.00 | 0.00 | 60 | 1014.4 |
| 20260906052425 | 28 | 121 | 1.6 | 1.6 | 0.00 | 0.00 | 0.00 | 60 | 1014.3 |
| 20260906051701 | 28 | 130 | 1.6 | 1.6 | 0.00 | 0.00 | 0.00 | 60 | 1014.4 |
| 20260906051157 | 28 | 128 | 1.6 | 1.6 | 0.00 | 0.00 | 0.00 | 60 | 1014.4 |
| 20260906050653 | 28 | 121 | 1.6 | 3.2 | 0.00 | 0.00 | 0.00 | 61 | 1014.3 |
| 20260906050127 | 28 | 119 | 1.6 | 3.2 | 0.00 | 0.00 | 0.00 | 61 | 1014.4 |
| 20260906045846 | 28 | 116 | 1.6 | 1.6 | 0.00 | 0.00 | 0.00 | 61 | 1014.4 |
| 20260906045122 | 28 | 129 | 1.6 | 1.6 | 0.00 | 0.00 | 0.00 | 61 | 1014.3 |
| 20260906044554 | 28 | 104 | 1.6 | 3.2 | 0.00 | 0.00 | 0.00 | 60 | 1014.5 |
| 20260906044314 | 28 | 106 | 0.0 | 3.2 | 0.00 | 0.00 | 0.00 | 60 | 1014.4 |
| 20260906043532 | 28 | 101 | 0.0 | 1.6 | 0.00 | 0.00 | 0.00 | 60 | 1014.3 |
| 20260906043002 | 29 | 84 | 1.6 | 3.2 | 0.00 | 0.00 | 0.00 | 59 | 1014.4 |
| 20260906042424 | 29 | 80 | 1.6 | 3.2 | 0.00 | 0.00 | 0.00 | 58 | 1014.3 |
| 20260906042153 | 29 | 104 | 1.6 | 6.4 | 0.00 | 0.00 | 0.00 | 57 | 1014.4 |
| 20260906041354 | 30 | 115 | 3.2 | 6.4 | 0.00 | 0.00 | 0.00 | 57 | 1014.4 |
| 20260906040852 | 30 | 134 | 3.2 | 6.4 | 0.00 | 0.00 | 0.00 | 57 | 1014.4 |
| 20260906040326 | 30 | 142 | 4.8 | 8.0 | 0.00 | 0.00 | 0.00 | 57 | 1014.4 |
| 20260906040022 | 30 | 159 | 4.8 | 8.0 | 0.00 | 0.00 | 0.00 | 56 | 1014.2 |
| 20260906035232 | 30 | 161 | 4.8 | 11.3 | 0.00 | 0.00 | 0.00 | 56 | 1014.0 |
| 20260906035218 | 30 | 148 | 6.4 | 11.3 | 0.00 | 0.00 | 0.00 | 55 | 1014.0 |
| 20260906034443 | 30 | 152 | 6.4 | 11.3 | 0.00 | 0.00 | 0.00 | 55 | 1013.9 |
| 20260906033717 | 30 | 147 | 6.4 | 11.3 | 0.00 | 0.00 | 0.00 | 55 | 1014.0 |
| 20260906033148 | 30 | 140 | 6.4 | 11.3 | 0.00 | 0.00 | 0.00 | 55 | 1013.8 |
| 20260906032646 | 30 | 148 | 6.4 | 11.3 | 0.00 | 0.00 | 0.00 | 55 | 1013.8 |
| 20260906032142 | 30 | 159 | 4.8 | 11.3 | 0.00 | 0.00 | 0.00 | 56 | 1013.7 |
| 20260906031640 | 30 | 140 | 3.2 | 9.7 | 0.00 | 0.00 | 0.00 | 56 | 1013.7 |
| 20260906031338 | 30 | 150 | 3.2 | 8.0 | 0.00 | 0.00 | 0.00 | 55 | 1013.8 |
| 20260906030550 | 30 | 157 | 4.8 | 8.0 | 0.00 | 0.00 | 0.00 | 55 | 1013.9 |
| 20260906030240 | 30 | 148 | 3.2 | 8.0 | 0.00 | 0.00 | 0.00 | 55 | 1013.9 |
| 20260906025516 | 30 | 164 | 3.2 | 8.0 | 0.00 | 0.00 | 0.00 | 54 | 1013.9 |
| 20260906025015 | 31 | 158 | 3.2 | 9.7 | 0.00 | 0.00 | 0.00 | 54 | 1013.8 |
| 20260906024453 | 31 | 158 | 3.2 | 9.7 | 0.00 | 0.00 | 0.00 | 54 | 1013.7 |
| 20260906024435 | 31 | 138 | 4.8 | 9.7 | 0.00 | 0.00 | 0.00 | 53 | 1013.7 |
| 20260906023450 | 31 | 132 | 6.4 | 9.7 | 0.00 | 0.00 | 0.00 | 53 | 1013.7 |
| 20260906022925 | 31 | 134 | 4.8 | 8.0 | 0.00 | 0.00 | 0.00 | 53 | 1013.5 |
| 20260906022621 | 31 | 142 | 4.8 | 8.0 | 0.00 | 0.00 | 0.00 | 53 | 1013.6 |
| 20260906021904 | 31 | 163 | 3.2 | 9.7 | 0.00 | 0.00 | 0.00 | 53 | 1013.4 |
| 20260906021342 | 31 | 148 | 3.2 | 9.7 | 0.00 | 0.00 | 0.00 | 53 | 1013.4 |
| 20260906020832 | 31 | 158 | 3.2 | 6.4 | 0.00 | 0.00 | 0.00 | 53 | 1013.3 |
| 20260906020330 | 32 | 169 | 3.2 | 6.4 | 0.00 | 0.00 | 0.00 | 53 | 1013.3 |
| 20260906015832 | 32 | 169 | 1.6 | 4.8 | 0.00 | 0.00 | 0.00 | 50 | 1013.3 |
| 20260906015323 | 32 | 171 | 3.2 | 6.4 | 0.00 | 0.00 | 0.00 | 50 | 1013.3 |
| 20260906014821 | 32 | 171 | 3.2 | 6.4 | 0.00 | 0.00 | 0.00 | 50 | 1013.1 |
| 20260906014324 | 32 | 171 | 1.6 | 6.4 | 0.00 | 0.00 | 0.00 | 49 | 1013.1 |
| 20260906013806 | 32 | 171 | 1.6 | 6.4 | 0.00 | 0.00 | 0.00 | 49 | 1013.0 |
| 20260906013305 | 32 | 174 | 3.2 | 6.4 | 0.00 | 0.00 | 0.00 | 49 | 1013.0 |
| 20260906012739 | 32 | 161 | 3.2 | 6.4 | 0.00 | 0.00 | 0.00 | 48 | 1012.9 |
| 20260906012221 | 33 | 161 | 3.2 | 6.4 | 0.00 | 0.00 | 0.00 | 48 | 1012.9 |
| 20260906011657 | 33 | 158 | 1.6 | 4.8 | 0.00 | 0.00 | 0.00 | 48 | 1012.8 |
| 20260906011135 | 33 | 140 | 3.2 | 4.8 | 0.00 | 0.00 | 0.00 | 47 | 1012.8 |
| 20260906010612 | 33 | 146 | 3.2 | 6.4 | 0.00 | 0.00 | 0.00 | 47 | 1012.7 |
| 20260906010047 | 33 | 159 | 3.2 | 6.4 | 0.00 | 0.00 | 0.00 | 46 | 1012.7 |
| 20260906005526 | 33 | 159 | 1.6 | 6.4 | 0.00 | 0.00 | 0.00 | 46 | 1012.5 |
| 20260906005010 | 33 | 151 | 1.6 | 4.8 | 0.00 | 0.00 | 0.00 | 46 | 1012.5 |
| 20260906004447 | 34 | 129 | 1.6 | 4.8 | 0.00 | 0.00 | 0.00 | 45 | 1012.5 |
| 20260906003922 | 34 | 149 | 1.6 | 3.2 | 0.00 | 0.00 | 0.00 | 45 | 1012.6 |
| 20260906003417 | 34 | 149 | 1.6 | 3.2 | 0.00 | 0.00 | 0.00 | 45 | 1012.6 |
| 20260906002917 | 34 | 155 | 1.6 | 6.4 | 0.00 | 0.00 | 0.00 | 45 | 1012.6 |
| 20260906002639 | 35 | 157 | 1.6 | 6.4 | 0.00 | 0.00 | 0.00 | 45 | 1012.6 |
| 20260906001908 | 35 | 162 | 1.6 | 4.8 | 0.00 | 0.00 | 0.00 | 45 | 1012.7 |
| 20260906001406 | 35 | 169 | 1.6 | 6.4 | 0.00 | 0.00 | 0.00 | 44 | 1012.5 |
| 20260906000840 | 35 | 152 | 3.2 | 6.4 | 0.00 | 0.00 | 0.00 | 43 | 1012.5 |
| 20260906000318 | 35 | 204 | 3.2 | 8.0 | 0.00 | 0.00 | 0.00 | 42 | 1012.5 |
| 20260905235749 | 35 | 188 | 4.8 | 9.7 | 0.00 | 0.00 | 0.00 | 42 | 1012.6 |
| 20260905235448 | 36 | 146 | 6.4 | 14.5 | 0.00 | 0.00 | 0.00 | 41 | 1012.6 |
| 20260905234653 | 36 | 207 | 6.4 | 14.5 | 0.00 | 0.00 | 0.00 | 40 | 1012.6 |
| 20260905234418 | 36 | 194 | 4.8 | 9.7 | 0.00 | 0.00 | 0.00 | 40 | 1012.6 |
| 20260905233647 | 36 | 168 | 4.8 | 8.0 | 0.00 | 0.00 | 0.00 | 39 | 1012.6 |
| 20260905233143 | 36 | 178 | 6.4 | 14.5 | 0.00 | 0.00 | 0.00 | 39 | 1012.8 |
| 20260905232621 | 36 | 167 | 9.7 | 17.7 | 0.00 | 0.00 | 0.00 | 39 | 1012.7 |
| 20260905232051 | 36 | 165 | 8.0 | 22.5 | 0.00 | 0.00 | 0.00 | 39 | 1012.6 |
| 20260905231524 | 36 | 168 | 8.0 | 22.5 | 0.00 | 0.00 | 0.00 | 40 | 1012.6 |
| 20260905231021 | 36 | 107 | 12.9 | 25.7 | 0.00 | 0.00 | 0.00 | 39 | 1012.5 |
| 20260905230453 | 36 | 130 | 12.9 | 25.7 | 0.00 | 0.00 | 0.00 | 39 | 1012.5 |
| 20260905230207 | 36 | 133 | 9.7 | 19.3 | 0.00 | 0.00 | 0.00 | 38 | 1012.5 |
| 20260905225447 | 36 | 126 | 6.4 | 17.7 | 0.00 | 0.00 | 0.00 | 38 | 1012.6 |
| 20260905224945 | 36 | 140 | 8.0 | 29.0 | 0.00 | 0.00 | 0.00 | 40 | 1012.5 |
| 20260905224433 | 36 | 169 | 8.0 | 29.0 | 0.00 | 0.00 | 0.00 | 39 | 1012.7 |
| 20260905224157 | 37 | 117 | 8.0 | 17.7 | 0.00 | 0.00 | 0.00 | 38 | 1012.7 |
| 20260905223407 | 37 | 126 | 11.3 | 19.3 | 0.00 | 0.00 | 0.00 | 38 | 1012.6 |
| 20260905222904 | 37 | 142 | 9.7 | 19.3 | 0.00 | 0.00 | 0.00 | 37 | 1012.6 |
| 20260905222402 | 37 | 188 | 9.7 | 19.3 | 0.00 | 0.00 | 0.00 | 37 | 1012.6 |
| 20260905221835 | 37 | 161 | 9.7 | 20.9 | 0.00 | 0.00 | 0.00 | 38 | 1012.6 |
| 20260905221333 | 37 | 173 | 9.7 | 20.9 | 0.00 | 0.00 | 0.00 | 39 | 1012.6 |
| 20260905221054 | 37 | 130 | 9.7 | 22.5 | 0.00 | 0.00 | 0.00 | 38 | 1012.6 |
| 20260905220534 | 37 | 121 | 9.7 | 22.5 | 0.00 | 0.00 | 0.00 | 39 | 1012.5 |
| 20260905215737 | 36 | 132 | 8.0 | 17.7 | 0.00 | 0.00 | 0.00 | 40 | 1012.5 |
| 20260905215235 | 36 | 134 | 9.7 | 20.9 | 0.00 | 0.00 | 0.00 | 39 | 1012.5 |
| 20260905214711 | 37 | 240 | 12.9 | 24.1 | 0.00 | 0.00 | 0.00 | 40 | 1012.5 |
| 20260905214141 | 36 | 180 | 14.5 | 24.1 | 0.00 | 0.00 | 0.00 | 40 | 1012.5 |
| 20260905213637 | 37 | 124 | 12.9 | 24.1 | 0.00 | 0.00 | 0.00 | 41 | 1012.5 |
| 20260905213135 | 37 | 163 | 9.7 | 24.1 | 0.00 | 0.00 | 0.00 | 39 | 1012.5 |
| 20260905212634 | 37 | 137 | 9.7 | 19.3 | 0.00 | 0.00 | 0.00 | 39 | 1012.5 |
| 20260905212108 | 37 | 190 | 14.5 | 29.0 | 0.00 | 0.00 | 0.00 | 38 | 1012.5 |
| 20260905211603 | 37 | 157 | 14.5 | 29.0 | 0.00 | 0.00 | 0.00 | 38 | 1012.7 |
| 20260905211323 | 37 | 233 | 12.9 | 19.3 | 0.00 | 0.00 | 0.00 | 38 | 1012.8 |
| 20260905210533 | 37 | 215 | 9.7 | 20.9 | 0.00 | 0.00 | 0.00 | 37 | 1012.8 |
| 20260905210032 | 36 | 163 | 6.4 | 17.7 | 0.00 | 0.00 | 0.00 | 40 | 1012.9 |
| 20260905205503 | 36 | 137 | 9.7 | 20.9 | 0.00 | 0.00 | 0.00 | 40 | 1013.0 |
| 20260905205222 | 36 | 126 | 11.3 | 27.4 | 0.00 | 0.00 | 0.00 | 41 | 1013.1 |
| 20260905204433 | 36 | 155 | 8.0 | 27.4 | 0.00 | 0.00 | 0.00 | 42 | 1013.2 |
| 20260905203931 | 36 | 130 | 9.7 | 24.1 | 0.00 | 0.00 | 0.00 | 41 | 1013.2 |
| 20260905203406 | 36 | 123 | 9.7 | 24.1 | 0.00 | 0.00 | 0.00 | 41 | 1013.3 |
| 20260905202837 | 36 | 192 | 8.0 | 25.7 | 0.00 | 0.00 | 0.00 | 42 | 1013.3 |
| 20260905202335 | 36 | 95 | 12.9 | 25.7 | 0.00 | 0.00 | 0.00 | 41 | 1013.4 |
| 20260905202033 | 36 | 145 | 12.9 | 25.7 | 0.00 | 0.00 | 0.00 | 42 | 1013.6 |
| 20260905201305 | 36 | 130 | 11.3 | 25.7 | 0.00 | 0.00 | 0.00 | 41 | 1013.6 |
| 20260905200836 | 36 | 193 | 11.3 | 20.9 | 0.00 | 0.00 | 0.00 | 42 | 1013.5 |
| 20260905195734 | 36 | 153 | 11.3 | 20.9 | 0.00 | 0.00 | 0.00 | 43 | 1013.6 |